sensor_id;sensor_type;location;lat;lon;timestamp;P1;durP1;ratioP1;P2;durP2;ratioP2
29854;SDS011;16733;48.738;9.106;2023-03-31T00:01:23;3.15;;;1.02;;
29854;SDS011;16733;48.738;9.106;2023-03-31T00:03:49;4.43;;;0.80;;
29854;SDS011;16733;48.738;9.106;2023-03-31T00:06:15;7.28;;;1.10;;
29854;SDS011;16733;48.738;9.106;2023-03-31T00:08:43;4.95;;;1.50;;
29854;SDS011;16733;48.738;9.106;2023-03-31T00:11:10;5.35;;;1.90;;
29854;SDS011;16733;48.738;9.106;2023-03-31T00:13:36;8.95;;;2.13;;
29854;SDS011;16733;48.738;9.106;2023-03-31T00:16:03;9.65;;;2.10;;
29854;SDS011;16733;48.738;9.106;2023-03-31T00:18:31;4.65;;;1.05;;
29854;SDS011;16733;48.738;9.106;2023-03-31T00:21:07;3.38;;;1.08;;
29854;SDS011;16733;48.738;9.106;2023-03-31T00:23:54;7.45;;;1.20;;
29854;SDS011;16733;48.738;9.106;2023-03-31T00:26:21;10.35;;;1.50;;
29854;SDS011;16733;48.738;9.106;2023-03-31T00:28:48;4.55;;;1.00;;
29854;SDS011;16733;48.738;9.106;2023-03-31T00:31:14;5.90;;;1.50;;
29854;SDS011;16733;48.738;9.106;2023-03-31T00:33:40;1.70;;;0.90;;
29854;SDS011;16733;48.738;9.106;2023-03-31T00:36:06;5.75;;;1.15;;
29854;SDS011;16733;48.738;9.106;2023-03-31T00:38:33;7.30;;;1.17;;
29854;SDS011;16733;48.738;9.106;2023-03-31T00:40:59;4.47;;;1.30;;
29854;SDS011;16733;48.738;9.106;2023-03-31T00:43:34;5.93;;;1.27;;
29854;SDS011;16733;48.738;9.106;2023-03-31T00:48:45;8.52;;;1.58;;
29854;SDS011;16733;48.738;9.106;2023-03-31T00:51:16;5.53;;;0.98;;
29854;SDS011;16733;48.738;9.106;2023-03-31T00:53:45;8.60;;;1.42;;
29854;SDS011;16733;48.738;9.106;2023-03-31T00:56:19;6.53;;;1.20;;
29854;SDS011;16733;48.738;9.106;2023-03-31T00:58:46;3.83;;;1.23;;
29854;SDS011;16733;48.738;9.106;2023-03-31T01:01:15;6.95;;;1.00;;
29854;SDS011;16733;48.738;9.106;2023-03-31T01:03:43;6.38;;;1.45;;
29854;SDS011;16733;48.738;9.106;2023-03-31T01:06:10;6.13;;;1.50;;
29854;SDS011;16733;48.738;9.106;2023-03-31T01:08:39;4.60;;;1.45;;
29854;SDS011;16733;48.738;9.106;2023-03-31T01:11:06;4.05;;;1.02;;
29854;SDS011;16733;48.738;9.106;2023-03-31T01:13:36;7.05;;;1.20;;
29854;SDS011;16733;48.738;9.106;2023-03-31T01:16:03;4.63;;;1.13;;
29854;SDS011;16733;48.738;9.106;2023-03-31T01:18:29;4.35;;;1.77;;
29854;SDS011;16733;48.738;9.106;2023-03-31T01:48:11;5.35;;;1.33;;
29854;SDS011;16733;48.738;9.106;2023-03-31T01:50:46;12.05;;;1.65;;
29854;SDS011;16733;48.738;9.106;2023-03-31T02:01:36;9.40;;;1.73;;
29854;SDS011;16733;48.738;9.106;2023-03-31T02:04:19;5.10;;;1.00;;
29854;SDS011;16733;48.738;9.106;2023-03-31T02:06:50;5.38;;;1.42;;
29854;SDS011;16733;48.738;9.106;2023-03-31T02:09:21;6.78;;;1.45;;
29854;SDS011;16733;48.738;9.106;2023-03-31T02:11:54;4.15;;;1.40;;
29854;SDS011;16733;48.738;9.106;2023-03-31T02:14:22;7.35;;;1.50;;
29854;SDS011;16733;48.738;9.106;2023-03-31T02:16:53;5.30;;;1.60;;
29854;SDS011;16733;48.738;9.106;2023-03-31T02:19:27;7.47;;;1.80;;
29854;SDS011;16733;48.738;9.106;2023-03-31T02:21:56;3.00;;;0.90;;
29854;SDS011;16733;48.738;9.106;2023-03-31T02:24:23;2.92;;;1.20;;
29854;SDS011;16733;48.738;9.106;2023-03-31T02:29:21;10.77;;;2.10;;
29854;SDS011;16733;48.738;9.106;2023-03-31T02:34:16;11.38;;;2.20;;
29854;SDS011;16733;48.738;9.106;2023-03-31T02:36:42;16.00;;;2.33;;
29854;SDS011;16733;48.738;9.106;2023-03-31T02:39:13;3.13;;;1.10;;
29854;SDS011;16733;48.738;9.106;2023-03-31T02:41:41;7.28;;;1.52;;
29854;SDS011;16733;48.738;9.106;2023-03-31T02:44:08;4.18;;;1.20;;
29854;SDS011;16733;48.738;9.106;2023-03-31T02:46:35;3.67;;;1.40;;
29854;SDS011;16733;48.738;9.106;2023-03-31T02:49:02;7.28;;;1.98;;
29854;SDS011;16733;48.738;9.106;2023-03-31T03:02:06;4.40;;;1.30;;
29854;SDS011;16733;48.738;9.106;2023-03-31T03:10:34;2.47;;;1.27;;
29854;SDS011;16733;48.738;9.106;2023-03-31T03:15:48;10.38;;;2.05;;
29854;SDS011;16733;48.738;9.106;2023-03-31T03:18:18;3.50;;;1.40;;
29854;SDS011;16733;48.738;9.106;2023-03-31T03:20:44;6.32;;;2.10;;
29854;SDS011;16733;48.738;9.106;2023-03-31T03:23:15;5.28;;;1.75;;
29854;SDS011;16733;48.738;9.106;2023-03-31T03:25:41;3.92;;;1.58;;
29854;SDS011;16733;48.738;9.106;2023-03-31T03:28:08;6.25;;;1.70;;
29854;SDS011;16733;48.738;9.106;2023-03-31T03:30:34;5.97;;;1.77;;
29854;SDS011;16733;48.738;9.106;2023-03-31T03:33:00;6.75;;;1.52;;
29854;SDS011;16733;48.738;9.106;2023-03-31T03:35:27;6.40;;;1.58;;
29854;SDS011;16733;48.738;9.106;2023-03-31T03:37:53;6.25;;;1.90;;
29854;SDS011;16733;48.738;9.106;2023-03-31T03:40:18;4.43;;;1.80;;
29854;SDS011;16733;48.738;9.106;2023-03-31T03:42:44;8.93;;;1.92;;
29854;SDS011;16733;48.738;9.106;2023-03-31T03:45:10;6.68;;;2.22;;
29854;SDS011;16733;48.738;9.106;2023-03-31T03:47:35;6.18;;;1.73;;
29854;SDS011;16733;48.738;9.106;2023-03-31T03:50:01;5.72;;;1.60;;
29854;SDS011;16733;48.738;9.106;2023-03-31T03:52:27;7.70;;;1.63;;
29854;SDS011;16733;48.738;9.106;2023-03-31T03:54:53;5.95;;;2.22;;
29854;SDS011;16733;48.738;9.106;2023-03-31T03:57:19;9.25;;;1.73;;
29854;SDS011;16733;48.738;9.106;2023-03-31T03:59:45;3.45;;;1.52;;
29854;SDS011;16733;48.738;9.106;2023-03-31T04:02:11;3.33;;;1.40;;
29854;SDS011;16733;48.738;9.106;2023-03-31T04:04:37;4.82;;;1.85;;
29854;SDS011;16733;48.738;9.106;2023-03-31T04:07:03;6.75;;;1.50;;
29854;SDS011;16733;48.738;9.106;2023-03-31T04:09:28;8.80;;;1.70;;
29854;SDS011;16733;48.738;9.106;2023-03-31T04:11:54;7.35;;;1.90;;
29854;SDS011;16733;48.738;9.106;2023-03-31T04:14:20;7.70;;;2.03;;
29854;SDS011;16733;48.738;9.106;2023-03-31T04:16:46;7.20;;;1.92;;
29854;SDS011;16733;48.738;9.106;2023-03-31T04:19:12;3.78;;;1.77;;
29854;SDS011;16733;48.738;9.106;2023-03-31T04:21:41;5.47;;;1.90;;
29854;SDS011;16733;48.738;9.106;2023-03-31T04:24:09;4.90;;;1.90;;
29854;SDS011;16733;48.738;9.106;2023-03-31T04:26:40;4.65;;;2.00;;
29854;SDS011;16733;48.738;9.106;2023-03-31T04:29:09;8.15;;;2.22;;
29854;SDS011;16733;48.738;9.106;2023-03-31T04:31:36;5.78;;;1.83;;
29854;SDS011;16733;48.738;9.106;2023-03-31T04:34:03;7.32;;;1.88;;
29854;SDS011;16733;48.738;9.106;2023-03-31T04:36:30;7.35;;;2.20;;
29854;SDS011;16733;48.738;9.106;2023-03-31T04:38:57;10.43;;;2.92;;
29854;SDS011;16733;48.738;9.106;2023-03-31T04:41:23;6.85;;;2.13;;
29854;SDS011;16733;48.738;9.106;2023-03-31T04:43:49;3.88;;;2.00;;
29854;SDS011;16733;48.738;9.106;2023-03-31T04:46:15;6.45;;;2.10;;
29854;SDS011;16733;48.738;9.106;2023-03-31T04:48:40;9.75;;;2.35;;
29854;SDS011;16733;48.738;9.106;2023-03-31T04:51:06;10.32;;;3.08;;
29854;SDS011;16733;48.738;9.106;2023-03-31T04:53:33;7.85;;;2.42;;
29854;SDS011;16733;48.738;9.106;2023-03-31T04:55:58;6.57;;;2.30;;
29854;SDS011;16733;48.738;9.106;2023-03-31T04:58:24;5.68;;;2.10;;
29854;SDS011;16733;48.738;9.106;2023-03-31T05:00:50;8.82;;;2.50;;
29854;SDS011;16733;48.738;9.106;2023-03-31T05:03:16;6.90;;;2.00;;
29854;SDS011;16733;48.738;9.106;2023-03-31T05:05:42;9.30;;;1.85;;
29854;SDS011;16733;48.738;9.106;2023-03-31T05:08:08;4.07;;;2.20;;
29854;SDS011;16733;48.738;9.106;2023-03-31T05:10:33;6.88;;;2.78;;
29854;SDS011;16733;48.738;9.106;2023-03-31T05:12:59;6.57;;;2.05;;
29854;SDS011;16733;48.738;9.106;2023-03-31T05:15:25;8.50;;;2.30;;
29854;SDS011;16733;48.738;9.106;2023-03-31T05:17:50;5.07;;;2.38;;
29854;SDS011;16733;48.738;9.106;2023-03-31T05:20:16;9.88;;;2.83;;
29854;SDS011;16733;48.738;9.106;2023-03-31T05:22:43;6.47;;;2.25;;
29854;SDS011;16733;48.738;9.106;2023-03-31T05:25:10;9.48;;;2.83;;
29854;SDS011;16733;48.738;9.106;2023-03-31T05:27:38;7.30;;;2.50;;
29854;SDS011;16733;48.738;9.106;2023-03-31T05:30:04;11.07;;;2.40;;
29854;SDS011;16733;48.738;9.106;2023-03-31T05:32:32;6.85;;;2.47;;
29854;SDS011;16733;48.738;9.106;2023-03-31T05:34:57;6.05;;;2.53;;
29854;SDS011;16733;48.738;9.106;2023-03-31T05:37:23;5.22;;;2.50;;
29854;SDS011;16733;48.738;9.106;2023-03-31T05:39:49;4.85;;;2.42;;
29854;SDS011;16733;48.738;9.106;2023-03-31T05:42:15;17.67;;;3.50;;
29854;SDS011;16733;48.738;9.106;2023-03-31T05:44:41;6.22;;;2.83;;
29854;SDS011;16733;48.738;9.106;2023-03-31T05:47:07;11.27;;;3.00;;
29854;SDS011;16733;48.738;9.106;2023-03-31T05:49:33;8.98;;;3.45;;
29854;SDS011;16733;48.738;9.106;2023-03-31T05:51:58;14.05;;;3.95;;
29854;SDS011;16733;48.738;9.106;2023-03-31T05:54:24;15.45;;;3.70;;
29854;SDS011;16733;48.738;9.106;2023-03-31T05:56:50;7.78;;;3.17;;
29854;SDS011;16733;48.738;9.106;2023-03-31T05:59:16;11.95;;;3.75;;
29854;SDS011;16733;48.738;9.106;2023-03-31T06:01:42;9.65;;;3.50;;
29854;SDS011;16733;48.738;9.106;2023-03-31T06:04:08;9.00;;;3.55;;
29854;SDS011;16733;48.738;9.106;2023-03-31T06:06:33;8.43;;;3.85;;
29854;SDS011;16733;48.738;9.106;2023-03-31T06:08:59;10.27;;;3.90;;
29854;SDS011;16733;48.738;9.106;2023-03-31T06:11:25;9.10;;;4.15;;
29854;SDS011;16733;48.738;9.106;2023-03-31T06:13:50;12.80;;;3.75;;
29854;SDS011;16733;48.738;9.106;2023-03-31T06:16:16;12.15;;;4.05;;
29854;SDS011;16733;48.738;9.106;2023-03-31T06:18:42;15.10;;;3.15;;
29854;SDS011;16733;48.738;9.106;2023-03-31T06:21:13;9.70;;;3.08;;
29854;SDS011;16733;48.738;9.106;2023-03-31T06:23:40;7.18;;;3.78;;
29854;SDS011;16733;48.738;9.106;2023-03-31T06:26:10;8.70;;;3.65;;
29854;SDS011;16733;48.738;9.106;2023-03-31T06:28:37;9.90;;;3.53;;
29854;SDS011;16733;48.738;9.106;2023-03-31T06:31:04;11.23;;;3.50;;
29854;SDS011;16733;48.738;9.106;2023-03-31T06:33:31;9.45;;;3.25;;
29854;SDS011;16733;48.738;9.106;2023-03-31T06:35:58;15.88;;;3.78;;
29854;SDS011;16733;48.738;9.106;2023-03-31T06:38:25;13.95;;;3.78;;
29854;SDS011;16733;48.738;9.106;2023-03-31T06:40:52;14.57;;;3.83;;
29854;SDS011;16733;48.738;9.106;2023-03-31T06:43:18;17.50;;;3.50;;
29854;SDS011;16733;48.738;9.106;2023-03-31T06:45:44;18.98;;;3.90;;
29854;SDS011;16733;48.738;9.106;2023-03-31T06:48:10;14.40;;;3.22;;
29854;SDS011;16733;48.738;9.106;2023-03-31T06:50:36;9.10;;;3.13;;
29854;SDS011;16733;48.738;9.106;2023-03-31T06:53:02;12.02;;;3.33;;
29854;SDS011;16733;48.738;9.106;2023-03-31T06:55:28;15.70;;;3.40;;
29854;SDS011;16733;48.738;9.106;2023-03-31T06:57:54;24.13;;;4.13;;
29854;SDS011;16733;48.738;9.106;2023-03-31T07:00:20;8.05;;;2.78;;
29854;SDS011;16733;48.738;9.106;2023-03-31T07:02:46;11.63;;;3.58;;
29854;SDS011;16733;48.738;9.106;2023-03-31T07:05:11;8.13;;;3.00;;
29854;SDS011;16733;48.738;9.106;2023-03-31T07:07:37;14.50;;;3.70;;
29854;SDS011;16733;48.738;9.106;2023-03-31T07:10:02;9.20;;;3.80;;
29854;SDS011;16733;48.738;9.106;2023-03-31T07:12:31;6.70;;;2.67;;
29854;SDS011;16733;48.738;9.106;2023-03-31T07:14:57;4.38;;;2.15;;
29854;SDS011;16733;48.738;9.106;2023-03-31T07:17:23;5.40;;;2.67;;
29854;SDS011;16733;48.738;9.106;2023-03-31T07:19:49;5.13;;;2.67;;
29854;SDS011;16733;48.738;9.106;2023-03-31T07:22:15;5.25;;;2.10;;
29854;SDS011;16733;48.738;9.106;2023-03-31T07:24:40;8.63;;;2.20;;
29854;SDS011;16733;48.738;9.106;2023-03-31T07:27:06;3.42;;;1.90;;
29854;SDS011;16733;48.738;9.106;2023-03-31T07:29:31;7.32;;;2.20;;
29854;SDS011;16733;48.738;9.106;2023-03-31T07:31:57;7.38;;;1.80;;
29854;SDS011;16733;48.738;9.106;2023-03-31T07:34:22;2.95;;;1.60;;
29854;SDS011;16733;48.738;9.106;2023-03-31T07:36:48;5.28;;;1.50;;
29854;SDS011;16733;48.738;9.106;2023-03-31T07:39:15;5.80;;;1.73;;
29854;SDS011;16733;48.738;9.106;2023-03-31T07:41:40;5.10;;;1.40;;
29854;SDS011;16733;48.738;9.106;2023-03-31T07:44:06;2.28;;;1.40;;
29854;SDS011;16733;48.738;9.106;2023-03-31T07:46:32;6.28;;;1.40;;
29854;SDS011;16733;48.738;9.106;2023-03-31T07:48:57;3.83;;;0.93;;
29854;SDS011;16733;48.738;9.106;2023-03-31T07:51:24;2.63;;;1.40;;
29854;SDS011;16733;48.738;9.106;2023-03-31T07:53:51;5.85;;;1.10;;
29854;SDS011;16733;48.738;9.106;2023-03-31T07:56:20;2.20;;;1.05;;
29854;SDS011;16733;48.738;9.106;2023-03-31T07:58:48;5.35;;;1.00;;
29854;SDS011;16733;48.738;9.106;2023-03-31T08:01:14;1.50;;;0.73;;
29854;SDS011;16733;48.738;9.106;2023-03-31T08:03:41;0.55;;;0.55;;
29854;SDS011;16733;48.738;9.106;2023-03-31T08:06:07;1.08;;;0.90;;
29854;SDS011;16733;48.738;9.106;2023-03-31T08:08:33;3.45;;;0.80;;
29854;SDS011;16733;48.738;9.106;2023-03-31T08:10:58;1.95;;;0.70;;
29854;SDS011;16733;48.738;9.106;2023-03-31T08:13:24;2.13;;;0.80;;
29854;SDS011;16733;48.738;9.106;2023-03-31T08:15:50;3.42;;;0.93;;
29854;SDS011;16733;48.738;9.106;2023-03-31T08:18:15;1.70;;;0.80;;
29854;SDS011;16733;48.738;9.106;2023-03-31T08:20:41;2.35;;;1.25;;
29854;SDS011;16733;48.738;9.106;2023-03-31T08:23:07;3.13;;;0.68;;
29854;SDS011;16733;48.738;9.106;2023-03-31T08:25:35;3.97;;;0.70;;
29854;SDS011;16733;48.738;9.106;2023-03-31T08:28:01;0.63;;;0.60;;
29854;SDS011;16733;48.738;9.106;2023-03-31T08:30:27;1.48;;;0.80;;
29854;SDS011;16733;48.738;9.106;2023-03-31T08:32:52;1.85;;;0.88;;
29854;SDS011;16733;48.738;9.106;2023-03-31T08:35:18;4.82;;;1.05;;
29854;SDS011;16733;48.738;9.106;2023-03-31T08:37:43;7.55;;;0.80;;
29854;SDS011;16733;48.738;9.106;2023-03-31T08:40:17;7.63;;;1.20;;
29854;SDS011;16733;48.738;9.106;2023-03-31T08:42:45;1.55;;;0.70;;
29854;SDS011;16733;48.738;9.106;2023-03-31T08:45:36;2.65;;;0.80;;
29854;SDS011;16733;48.738;9.106;2023-03-31T08:48:06;2.53;;;1.20;;
29854;SDS011;16733;48.738;9.106;2023-03-31T08:50:45;4.53;;;1.05;;
29854;SDS011;16733;48.738;9.106;2023-03-31T08:55:58;2.95;;;0.90;;
29854;SDS011;16733;48.738;9.106;2023-03-31T08:58:35;4.43;;;1.15;;
29854;SDS011;16733;48.738;9.106;2023-03-31T09:07:05;5.68;;;1.42;;
29854;SDS011;16733;48.738;9.106;2023-03-31T09:12:18;3.83;;;0.90;;
29854;SDS011;16733;48.738;9.106;2023-03-31T09:14:59;3.10;;;1.20;;
29854;SDS011;16733;48.738;9.106;2023-03-31T09:17:28;5.10;;;1.08;;
29854;SDS011;16733;48.738;9.106;2023-03-31T09:20:03;5.63;;;0.85;;
29854;SDS011;16733;48.738;9.106;2023-03-31T09:22:34;1.83;;;0.57;;
29854;SDS011;16733;48.738;9.106;2023-03-31T09:27:31;3.85;;;1.20;;
29854;SDS011;16733;48.738;9.106;2023-03-31T09:30:02;2.15;;;0.75;;
29854;SDS011;16733;48.738;9.106;2023-03-31T09:32:34;2.33;;;0.68;;
29854;SDS011;16733;48.738;9.106;2023-03-31T09:35:19;1.75;;;0.55;;
29854;SDS011;16733;48.738;9.106;2023-03-31T09:37:49;4.35;;;0.82;;
29854;SDS011;16733;48.738;9.106;2023-03-31T09:40:19;4.65;;;0.65;;
29854;SDS011;16733;48.738;9.106;2023-03-31T09:42:47;1.73;;;0.80;;
29854;SDS011;16733;48.738;9.106;2023-03-31T09:45:20;1.52;;;0.60;;
29854;SDS011;16733;48.738;9.106;2023-03-31T09:47:48;3.28;;;0.90;;
29854;SDS011;16733;48.738;9.106;2023-03-31T09:50:16;3.08;;;0.90;;
29854;SDS011;16733;48.738;9.106;2023-03-31T09:52:46;4.13;;;1.00;;
29854;SDS011;16733;48.738;9.106;2023-03-31T09:55:20;3.22;;;0.82;;
29854;SDS011;16733;48.738;9.106;2023-03-31T09:57:58;5.93;;;1.35;;
29854;SDS011;16733;48.738;9.106;2023-03-31T10:00:25;2.25;;;0.93;;
29854;SDS011;16733;48.738;9.106;2023-03-31T10:02:55;3.92;;;1.00;;
29854;SDS011;16733;48.738;9.106;2023-03-31T10:05:29;5.72;;;1.15;;
29854;SDS011;16733;48.738;9.106;2023-03-31T10:10:38;2.78;;;0.80;;
29854;SDS011;16733;48.738;9.106;2023-03-31T10:13:10;4.07;;;1.27;;
29854;SDS011;16733;48.738;9.106;2023-03-31T10:15:40;6.25;;;1.00;;
29854;SDS011;16733;48.738;9.106;2023-03-31T10:18:10;3.28;;;1.00;;
29854;SDS011;16733;48.738;9.106;2023-03-31T10:20:38;2.90;;;0.73;;
29854;SDS011;16733;48.738;9.106;2023-03-31T10:23:15;4.80;;;0.80;;
29854;SDS011;16733;48.738;9.106;2023-03-31T10:25:50;4.95;;;1.25;;
29854;SDS011;16733;48.738;9.106;2023-03-31T10:28:17;4.03;;;1.20;;
29854;SDS011;16733;48.738;9.106;2023-03-31T10:30:54;3.63;;;0.93;;
29854;SDS011;16733;48.738;9.106;2023-03-31T10:33:23;3.53;;;0.90;;
29854;SDS011;16733;48.738;9.106;2023-03-31T10:35:58;8.73;;;1.08;;
29854;SDS011;16733;48.738;9.106;2023-03-31T10:38:35;6.78;;;1.00;;
29854;SDS011;16733;48.738;9.106;2023-03-31T10:41:06;9.65;;;1.10;;
29854;SDS011;16733;48.738;9.106;2023-03-31T10:43:35;4.80;;;1.00;;
29854;SDS011;16733;48.738;9.106;2023-03-31T10:46:05;6.32;;;1.27;;
29854;SDS011;16733;48.738;9.106;2023-03-31T10:48:31;2.13;;;0.77;;
29854;SDS011;16733;48.738;9.106;2023-03-31T10:59:24;4.88;;;0.80;;
29854;SDS011;16733;48.738;9.106;2023-03-31T11:10:17;10.90;;;0.80;;
29854;SDS011;16733;48.738;9.106;2023-03-31T11:12:51;3.80;;;1.17;;
29854;SDS011;16733;48.738;9.106;2023-03-31T11:15:24;3.88;;;0.90;;
29854;SDS011;16733;48.738;9.106;2023-03-31T11:20:54;5.63;;;1.35;;
29854;SDS011;16733;48.738;9.106;2023-03-31T11:23:24;5.43;;;0.63;;
29854;SDS011;16733;48.738;9.106;2023-03-31T11:26:09;3.63;;;0.50;;
29854;SDS011;16733;48.738;9.106;2023-03-31T11:32:06;0.82;;;0.40;;
29854;SDS011;16733;48.738;9.106;2023-03-31T11:34:48;3.65;;;0.65;;
29854;SDS011;16733;48.738;9.106;2023-03-31T11:40:05;1.30;;;0.30;;
29854;SDS011;16733;48.738;9.106;2023-03-31T11:42:51;1.70;;;0.30;;
29854;SDS011;16733;48.738;9.106;2023-03-31T11:45:22;1.08;;;0.43;;
29854;SDS011;16733;48.738;9.106;2023-03-31T11:47:54;3.22;;;0.60;;
29854;SDS011;16733;48.738;9.106;2023-03-31T11:50:27;1.85;;;0.40;;
29854;SDS011;16733;48.738;9.106;2023-03-31T11:52:57;1.55;;;0.38;;
29854;SDS011;16733;48.738;9.106;2023-03-31T11:55:27;1.30;;;0.40;;
29854;SDS011;16733;48.738;9.106;2023-03-31T12:00:26;0.32;;;0.30;;
29854;SDS011;16733;48.738;9.106;2023-03-31T12:05:29;1.20;;;0.40;;
29854;SDS011;16733;48.738;9.106;2023-03-31T12:08:01;0.50;;;0.40;;
29854;SDS011;16733;48.738;9.106;2023-03-31T12:10:33;0.85;;;0.35;;
29854;SDS011;16733;48.738;9.106;2023-03-31T12:13:08;0.95;;;0.30;;
29854;SDS011;16733;48.738;9.106;2023-03-31T12:16:04;2.35;;;0.40;;
29854;SDS011;16733;48.738;9.106;2023-03-31T12:18:38;3.58;;;0.40;;
29854;SDS011;16733;48.738;9.106;2023-03-31T12:21:09;0.35;;;0.35;;
29854;SDS011;16733;48.738;9.106;2023-03-31T12:23:40;0.85;;;0.40;;
29854;SDS011;16733;48.738;9.106;2023-03-31T12:31:56;2.08;;;0.50;;
29854;SDS011;16733;48.738;9.106;2023-03-31T12:34:25;2.40;;;0.80;;
29854;SDS011;16733;48.738;9.106;2023-03-31T12:37:27;1.25;;;0.55;;
29854;SDS011;16733;48.738;9.106;2023-03-31T12:42:57;2.40;;;0.47;;
29854;SDS011;16733;48.738;9.106;2023-03-31T12:45:38;1.48;;;0.50;;
29854;SDS011;16733;48.738;9.106;2023-03-31T12:56:13;2.92;;;0.60;;
29854;SDS011;16733;48.738;9.106;2023-03-31T12:58:40;3.50;;;0.60;;
29854;SDS011;16733;48.738;9.106;2023-03-31T13:01:12;2.53;;;0.60;;
29854;SDS011;16733;48.738;9.106;2023-03-31T13:04:07;5.38;;;0.88;;
29854;SDS011;16733;48.738;9.106;2023-03-31T13:09:40;6.68;;;0.82;;
29854;SDS011;16733;48.738;9.106;2023-03-31T13:11:57;1.92;;;0.50;;
29854;SDS011;16733;48.738;9.106;2023-03-31T13:14:34;4.15;;;0.85;;
29854;SDS011;16733;48.738;9.106;2023-03-31T13:19:46;3.40;;;0.85;;
29854;SDS011;16733;48.738;9.106;2023-03-31T13:22:32;5.03;;;1.05;;
29854;SDS011;16733;48.738;9.106;2023-03-31T13:27:56;4.32;;;0.88;;
29854;SDS011;16733;48.738;9.106;2023-03-31T13:38:56;1.90;;;0.40;;
29854;SDS011;16733;48.738;9.106;2023-03-31T13:47:29;0.13;;;0.13;;
29854;SDS011;16733;48.738;9.106;2023-03-31T13:56:14;3.40;;;0.55;;
29854;SDS011;16733;48.738;9.106;2023-03-31T14:05:11;1.03;;;0.40;;
29854;SDS011;16733;48.738;9.106;2023-03-31T14:07:55;0.30;;;0.30;;
29854;SDS011;16733;48.738;9.106;2023-03-31T14:10:34;0.98;;;0.40;;
29854;SDS011;16733;48.738;9.106;2023-03-31T14:13:06;0.82;;;0.50;;
29854;SDS011;16733;48.738;9.106;2023-03-31T14:15:55;1.85;;;0.40;;
29854;SDS011;16733;48.738;9.106;2023-03-31T14:18:23;4.15;;;0.65;;
29854;SDS011;16733;48.738;9.106;2023-03-31T14:26:57;2.47;;;0.40;;
29854;SDS011;16733;48.738;9.106;2023-03-31T14:29:46;0.75;;;0.50;;
29854;SDS011;16733;48.738;9.106;2023-03-31T14:32:43;0.75;;;0.40;;
29854;SDS011;16733;48.738;9.106;2023-03-31T14:37:50;1.23;;;0.35;;
29854;SDS011;16733;48.738;9.106;2023-03-31T14:40:17;0.60;;;0.40;;
29854;SDS011;16733;48.738;9.106;2023-03-31T14:42:44;0.85;;;0.43;;
29854;SDS011;16733;48.738;9.106;2023-03-31T14:45:21;0.55;;;0.40;;
29854;SDS011;16733;48.738;9.106;2023-03-31T14:47:56;1.77;;;0.30;;
29854;SDS011;16733;48.738;9.106;2023-03-31T14:50:30;2.80;;;0.50;;
29854;SDS011;16733;48.738;9.106;2023-03-31T14:52:58;2.25;;;0.50;;
29854;SDS011;16733;48.738;9.106;2023-03-31T14:55:26;1.67;;;0.45;;
29854;SDS011;16733;48.738;9.106;2023-03-31T14:57:54;0.30;;;0.30;;
29854;SDS011;16733;48.738;9.106;2023-03-31T15:00:25;2.60;;;0.45;;
29854;SDS011;16733;48.738;9.106;2023-03-31T15:02:54;1.40;;;0.60;;
29854;SDS011;16733;48.738;9.106;2023-03-31T15:05:24;3.08;;;0.60;;
29854;SDS011;16733;48.738;9.106;2023-03-31T15:07:57;1.50;;;0.50;;
29854;SDS011;16733;48.738;9.106;2023-03-31T15:10:32;1.50;;;0.47;;
29854;SDS011;16733;48.738;9.106;2023-03-31T15:13:06;1.88;;;0.40;;
29854;SDS011;16733;48.738;9.106;2023-03-31T15:15:33;2.75;;;0.80;;
29854;SDS011;16733;48.738;9.106;2023-03-31T15:17:58;2.38;;;0.68;;
29854;SDS011;16733;48.738;9.106;2023-03-31T15:20:29;2.35;;;0.50;;
29854;SDS011;16733;48.738;9.106;2023-03-31T15:22:59;2.67;;;0.40;;
29854;SDS011;16733;48.738;9.106;2023-03-31T15:25:33;1.15;;;0.40;;
29854;SDS011;16733;48.738;9.106;2023-03-31T15:28:04;1.20;;;0.45;;
29854;SDS011;16733;48.738;9.106;2023-03-31T15:30:32;1.48;;;0.50;;
29854;SDS011;16733;48.738;9.106;2023-03-31T15:32:58;1.55;;;0.50;;
29854;SDS011;16733;48.738;9.106;2023-03-31T15:35:26;1.08;;;0.50;;
29854;SDS011;16733;48.738;9.106;2023-03-31T15:37:56;1.50;;;0.70;;
29854;SDS011;16733;48.738;9.106;2023-03-31T15:40:24;2.25;;;0.60;;
29854;SDS011;16733;48.738;9.106;2023-03-31T15:42:56;2.28;;;1.13;;
29854;SDS011;16733;48.738;9.106;2023-03-31T15:45:47;4.97;;;0.50;;
29854;SDS011;16733;48.738;9.106;2023-03-31T15:48:16;1.58;;;0.45;;
29854;SDS011;16733;48.738;9.106;2023-03-31T15:50:53;0.82;;;0.70;;
29854;SDS011;16733;48.738;9.106;2023-03-31T15:53:30;1.23;;;0.50;;
29854;SDS011;16733;48.738;9.106;2023-03-31T15:56:01;3.85;;;0.55;;
29854;SDS011;16733;48.738;9.106;2023-03-31T16:01:19;3.10;;;0.60;;
29854;SDS011;16733;48.738;9.106;2023-03-31T16:03:47;2.17;;;0.57;;
29854;SDS011;16733;48.738;9.106;2023-03-31T16:08:59;2.50;;;0.50;;
29854;SDS011;16733;48.738;9.106;2023-03-31T16:11:51;2.72;;;1.02;;
29854;SDS011;16733;48.738;9.106;2023-03-31T16:14:21;1.88;;;0.57;;
29854;SDS011;16733;48.738;9.106;2023-03-31T16:16:49;1.05;;;0.50;;
29854;SDS011;16733;48.738;9.106;2023-03-31T16:19:19;5.15;;;0.70;;
29854;SDS011;16733;48.738;9.106;2023-03-31T16:21:48;3.72;;;0.75;;
29854;SDS011;16733;48.738;9.106;2023-03-31T16:24:20;3.85;;;0.80;;
29854;SDS011;16733;48.738;9.106;2023-03-31T16:26:59;1.42;;;0.70;;
29854;SDS011;16733;48.738;9.106;2023-03-31T16:29:30;6.57;;;1.10;;
29854;SDS011;16733;48.738;9.106;2023-03-31T16:32:09;1.42;;;0.52;;
29854;SDS011;16733;48.738;9.106;2023-03-31T16:34:59;2.55;;;0.57;;
29854;SDS011;16733;48.738;9.106;2023-03-31T16:37:26;1.13;;;0.35;;
29854;SDS011;16733;48.738;9.106;2023-03-31T16:39:52;1.95;;;0.82;;
29854;SDS011;16733;48.738;9.106;2023-03-31T16:42:18;1.77;;;0.80;;
29854;SDS011;16733;48.738;9.106;2023-03-31T16:44:44;1.67;;;0.60;;
29854;SDS011;16733;48.738;9.106;2023-03-31T16:47:11;0.95;;;0.55;;
29854;SDS011;16733;48.738;9.106;2023-03-31T16:49:39;0.95;;;0.30;;
29854;SDS011;16733;48.738;9.106;2023-03-31T16:52:05;0.52;;;0.30;;
29854;SDS011;16733;48.738;9.106;2023-03-31T16:54:32;5.63;;;0.77;;
29854;SDS011;16733;48.738;9.106;2023-03-31T16:56:58;2.50;;;0.60;;
29854;SDS011;16733;48.738;9.106;2023-03-31T16:59:24;5.28;;;0.55;;
29854;SDS011;16733;48.738;9.106;2023-03-31T17:01:49;1.38;;;0.40;;
29854;SDS011;16733;48.738;9.106;2023-03-31T17:04:16;3.47;;;0.63;;
29854;SDS011;16733;48.738;9.106;2023-03-31T17:06:41;1.75;;;0.55;;
29854;SDS011;16733;48.738;9.106;2023-03-31T17:09:08;2.30;;;0.52;;
29854;SDS011;16733;48.738;9.106;2023-03-31T17:11:34;1.20;;;0.30;;
29854;SDS011;16733;48.738;9.106;2023-03-31T17:14:00;0.75;;;0.50;;
29854;SDS011;16733;48.738;9.106;2023-03-31T17:16:26;5.07;;;0.60;;
29854;SDS011;16733;48.738;9.106;2023-03-31T17:18:52;3.05;;;0.70;;
29854;SDS011;16733;48.738;9.106;2023-03-31T17:21:18;4.65;;;0.63;;
29854;SDS011;16733;48.738;9.106;2023-03-31T17:23:44;2.20;;;0.77;;
29854;SDS011;16733;48.738;9.106;2023-03-31T17:26:11;3.53;;;0.43;;
29854;SDS011;16733;48.738;9.106;2023-03-31T17:28:37;0.98;;;0.60;;
29854;SDS011;16733;48.738;9.106;2023-03-31T17:31:12;1.63;;;0.70;;
29854;SDS011;16733;48.738;9.106;2023-03-31T17:33:43;4.47;;;0.60;;
29854;SDS011;16733;48.738;9.106;2023-03-31T17:36:09;2.05;;;0.50;;
29854;SDS011;16733;48.738;9.106;2023-03-31T17:38:35;0.65;;;0.40;;
29854;SDS011;16733;48.738;9.106;2023-03-31T17:41:03;2.85;;;0.52;;
29854;SDS011;16733;48.738;9.106;2023-03-31T17:43:29;1.23;;;0.40;;
29854;SDS011;16733;48.738;9.106;2023-03-31T17:46:05;1.35;;;0.50;;
29854;SDS011;16733;48.738;9.106;2023-03-31T17:48:33;2.50;;;0.70;;
29854;SDS011;16733;48.738;9.106;2023-03-31T17:51:03;3.85;;;0.40;;
29854;SDS011;16733;48.738;9.106;2023-03-31T17:53:29;2.03;;;1.17;;
29854;SDS011;16733;48.738;9.106;2023-03-31T17:55:55;0.63;;;0.43;;